createdAt,value
2022-11-25T00:01:18.331Z,23.60
2022-11-25T00:03:47.625Z,30.87
2022-11-25T00:06:17.508Z,27.07
2022-11-25T00:08:47.212Z,23.27
2022-11-25T00:11:15.633Z,29.00
2022-11-25T00:13:46.321Z,26.83
2022-11-25T00:16:16.395Z,25.63
2022-11-25T00:18:46.033Z,30.57
2022-11-25T00:21:15.316Z,29.27
2022-11-25T00:23:43.513Z,26.73
2022-11-25T00:26:13.808Z,25.23
2022-11-25T00:28:44.933Z,23.63
2022-11-25T00:31:14.795Z,25.03
2022-11-25T00:33:43.617Z,26.30
2022-11-25T00:36:17.364Z,31.50
2022-11-25T00:38:45.928Z,21.03
2022-11-25T00:41:31.901Z,24.93
2022-11-25T00:44:27.131Z,29.23
2022-11-25T00:46:55.106Z,23.17
2022-11-25T00:49:23.143Z,27.50
2022-11-25T00:51:51.300Z,23.07
2022-11-25T00:54:19.399Z,22.20
2022-11-25T00:56:47.473Z,23.43
2022-11-25T00:59:16.924Z,21.57
2022-11-25T01:01:44.993Z,26.93
2022-11-25T01:04:13.095Z,21.37
2022-11-25T01:06:41.287Z,24.43
2022-11-25T01:09:09.965Z,23.27
2022-11-25T01:11:40.820Z,21.60
2022-11-25T01:14:10.553Z,27.10
2022-11-25T01:16:39.944Z,19.53
2022-11-25T01:19:08.773Z,23.93
2022-11-25T01:21:36.989Z,22.63
2022-11-25T01:24:07.008Z,21.07
2022-11-25T01:26:37.104Z,22.27
2022-11-25T01:29:07.690Z,23.23
2022-11-25T01:31:37.043Z,22.67
2022-11-25T01:34:08.525Z,22.70
2022-11-25T01:36:37.036Z,23.53
2022-11-25T01:39:05.902Z,22.23
2022-11-25T01:41:35.449Z,24.37
2022-11-25T01:44:08.812Z,25.03
2022-11-25T01:46:47.922Z,26.30
2022-11-25T01:49:20.658Z,25.30
2022-11-25T01:51:52.986Z,22.47
2022-11-25T01:54:24.800Z,22.57
2022-11-25T01:56:58.165Z,19.10
2022-11-25T01:59:27.195Z,21.50
2022-11-25T02:01:55.969Z,29.00
2022-11-25T02:04:29.238Z,23.07
2022-11-25T02:07:03.027Z,27.93
2022-11-25T02:09:32.300Z,21.17
2022-11-25T02:12:02.046Z,23.73
2022-11-25T02:14:31.079Z,20.30
2022-11-25T02:17:02.127Z,22.77
2022-11-25T02:19:43.528Z,23.07
2022-11-25T02:22:14.060Z,19.97
2022-11-25T02:24:45.744Z,28.50
2022-11-25T02:27:16.257Z,23.07
2022-11-25T02:29:45.399Z,24.07
2022-11-25T02:32:13.523Z,24.30
2022-11-25T02:34:48.133Z,21.03
2022-11-25T02:37:18.407Z,19.60
2022-11-25T02:39:48.524Z,22.17
2022-11-25T02:42:21.869Z,20.10
2022-11-25T02:44:50.560Z,20.87
2022-11-25T02:47:18.645Z,18.23
2022-11-25T02:49:46.824Z,21.27
2022-11-25T02:52:14.826Z,18.13
2022-11-25T02:54:43.386Z,17.83
2022-11-25T02:57:11.444Z,19.53
2022-11-25T02:59:40.789Z,20.07
2022-11-25T03:02:08.878Z,20.07
2022-11-25T03:04:37.225Z,18.97
2022-11-25T03:07:05.444Z,17.83
2022-11-25T03:09:33.448Z,23.23
2022-11-25T03:12:21.287Z,19.10
2022-11-25T03:14:55.732Z,20.27
2022-11-25T03:17:23.925Z,21.97
2022-11-25T03:19:51.932Z,16.30
2022-11-25T03:22:19.935Z,21.47
2022-11-25T03:24:47.922Z,21.43
2022-11-25T03:27:16.039Z,17.30
2022-11-25T03:29:44.074Z,18.90
2022-11-25T03:32:13.556Z,21.07
2022-11-25T03:34:42.751Z,19.87
2022-11-25T03:37:10.980Z,17.33
2022-11-25T03:39:39.550Z,16.17
2022-11-25T03:42:08.468Z,21.43
2022-11-25T03:44:37.027Z,16.03
2022-11-25T03:47:05.630Z,18.37
2022-11-25T03:49:35.160Z,19.50
2022-11-25T03:52:03.304Z,19.03
2022-11-25T03:54:32.188Z,19.80
2022-11-25T03:57:13.803Z,17.30
2022-11-25T03:59:41.878Z,20.23
2022-11-25T04:02:10.127Z,15.30
2022-11-25T04:04:39.711Z,17.53
2022-11-25T04:07:09.293Z,20.10
2022-11-25T04:09:37.923Z,18.73
2022-11-25T04:12:25.759Z,19.83
2022-11-25T04:14:59.913Z,23.07
2022-11-25T04:17:28.118Z,15.40
2022-11-25T04:19:58.081Z,19.33
2022-11-25T04:22:26.096Z,17.40
2022-11-25T04:24:54.511Z,18.67
2022-11-25T04:27:26.615Z,20.17
2022-11-25T04:29:55.489Z,17.33
2022-11-25T04:32:23.871Z,16.43
2022-11-25T04:34:51.862Z,18.33
2022-11-25T04:37:21.827Z,14.03
2022-11-25T04:39:50.260Z,16.87
2022-11-25T04:42:34.249Z,16.80
2022-11-25T04:45:22.445Z,15.93
2022-11-25T04:47:52.170Z,18.57
2022-11-25T04:50:22.764Z,18.43
2022-11-25T04:52:58.736Z,20.73
2022-11-25T04:55:26.908Z,16.00
2022-11-25T04:57:54.917Z,16.37
2022-11-25T05:00:22.869Z,16.63
2022-11-25T05:02:51.053Z,15.97
2022-11-25T05:05:21.960Z,14.70
2022-11-25T05:07:50.671Z,15.50
2022-11-25T05:10:22.461Z,15.93
2022-11-25T05:12:51.824Z,12.77
2022-11-25T05:15:22.829Z,17.20
2022-11-25T05:17:50.855Z,19.27
2022-11-25T05:20:29.062Z,18.20
2022-11-25T05:22:57.075Z,14.43
2022-11-25T05:25:26.950Z,16.43
2022-11-25T05:28:18.051Z,15.03
2022-11-25T05:30:46.314Z,13.27
2022-11-25T05:33:14.357Z,13.63
2022-11-25T05:35:42.675Z,12.47
2022-11-25T05:38:10.701Z,14.77
2022-11-25T05:40:40.617Z,16.67
2022-11-25T05:43:13.677Z,17.30
2022-11-25T05:45:42.403Z,15.80
2022-11-25T05:48:12.408Z,16.00
2022-11-25T05:50:40.712Z,13.27
2022-11-25T05:53:18.250Z,17.23
2022-11-25T05:55:57.380Z,15.27
2022-11-25T05:58:45.233Z,12.20
2022-11-25T06:01:15.061Z,16.37
2022-11-25T06:03:43.940Z,14.70
2022-11-25T06:06:12.603Z,12.70
2022-11-25T06:08:41.185Z,14.93
2022-11-25T06:11:13.278Z,17.63
2022-11-25T06:13:42.032Z,17.07
2022-11-25T06:16:12.988Z,11.27
2022-11-25T06:18:41.168Z,13.17
2022-11-25T06:21:10.963Z,13.10
2022-11-25T06:23:39.753Z,15.30
2022-11-25T06:26:09.136Z,14.57
2022-11-25T06:28:39.014Z,11.97
2022-11-25T06:31:08.982Z,13.50
2022-11-25T06:33:42.649Z,15.17
2022-11-25T06:36:16.863Z,13.77
2022-11-25T06:38:45.698Z,13.47
2022-11-25T06:41:14.262Z,16.73
2022-11-25T06:43:43.620Z,13.57
2022-11-25T06:46:13.201Z,12.43
2022-11-25T06:48:42.278Z,15.60
2022-11-25T06:51:12.877Z,13.50
2022-11-25T06:53:41.829Z,11.37
2022-11-25T06:56:12.481Z,12.27
2022-11-25T06:58:41.039Z,11.50
2022-11-25T07:01:14.424Z,10.33
2022-11-25T07:03:42.615Z,12.70
2022-11-25T07:06:12.619Z,13.00
2022-11-25T07:08:40.884Z,14.87
2022-11-25T07:11:11.537Z,16.37
2022-11-25T07:13:39.917Z,15.70
2022-11-25T07:16:11.683Z,13.67
2022-11-25T07:18:40.899Z,15.00
2022-11-25T07:21:10.917Z,11.27
2022-11-25T07:23:39.692Z,10.53
2022-11-25T07:26:09.377Z,14.33
2022-11-25T07:28:37.945Z,8.17
2022-11-25T07:31:27.114Z,10.80
2022-11-25T07:33:59.579Z,12.47
2022-11-25T07:36:28.875Z,12.90
2022-11-25T07:38:56.859Z,16.77
2022-11-25T07:41:26.961Z,16.33
2022-11-25T07:43:56.929Z,10.47
2022-11-25T07:46:27.828Z,13.50
2022-11-25T07:48:59.833Z,15.93
2022-11-25T07:51:29.400Z,11.93
2022-11-25T07:53:59.703Z,14.77
2022-11-25T07:56:28.651Z,11.67
2022-11-25T07:58:57.310Z,14.70
2022-11-25T08:01:25.952Z,11.80
2022-11-25T08:03:54.677Z,10.07
2022-11-25T08:06:25.682Z,11.50
2022-11-25T08:08:55.664Z,13.17
2022-11-25T08:11:26.609Z,12.23
2022-11-25T08:13:55.267Z,15.13
2022-11-25T08:16:26.349Z,13.67
2022-11-25T08:18:55.520Z,11.90
2022-11-25T08:21:25.522Z,15.50
2022-11-25T08:23:54.177Z,11.60
2022-11-25T08:26:25.661Z,11.07
2022-11-25T08:28:54.437Z,11.10
2022-11-25T08:31:24.939Z,13.67
2022-11-25T08:33:53.815Z,9.70
2022-11-25T08:36:24.925Z,11.00
2022-11-25T08:38:55.432Z,9.37
2022-11-25T08:41:26.312Z,12.03
2022-11-25T08:43:54.656Z,11.43
2022-11-25T08:46:25.425Z,15.33
2022-11-25T08:48:53.695Z,13.53
2022-11-25T08:51:25.712Z,12.03
2022-11-25T08:53:53.940Z,14.80
2022-11-25T08:56:26.174Z,16.00
2022-11-25T08:58:55.185Z,13.53
2022-11-25T09:01:25.007Z,12.43
2022-11-25T09:03:55.397Z,12.27
2022-11-25T09:06:25.451Z,14.53
2022-11-25T09:08:56.168Z,14.80
2022-11-25T09:11:24.459Z,12.70
2022-11-25T09:13:52.745Z,14.07
2022-11-25T09:16:21.290Z,16.40
2022-11-25T09:18:55.319Z,11.90
2022-11-25T09:21:25.766Z,15.43
2022-11-25T09:23:55.013Z,11.03
2022-11-25T09:26:25.559Z,15.27
2022-11-25T09:28:54.217Z,13.23
2022-11-25T09:31:23.006Z,15.80
2022-11-25T09:33:51.033Z,15.23
2022-11-25T09:36:20.572Z,15.67
2022-11-25T09:38:50.117Z,13.73
2022-11-25T09:41:47.509Z,16.30
2022-11-25T09:44:55.710Z,15.40
2022-11-25T09:47:31.600Z,13.63
2022-11-25T09:50:11.577Z,11.93
2022-11-25T09:52:50.913Z,14.83
2022-11-25T09:55:24.131Z,14.47
2022-11-25T09:58:00.758Z,13.80
2022-11-25T10:00:38.887Z,12.03
2022-11-25T10:03:14.558Z,14.83
2022-11-25T10:05:47.288Z,14.10
2022-11-25T10:08:19.818Z,13.90
2022-11-25T10:10:52.820Z,13.17
2022-11-25T10:13:27.921Z,12.10
2022-11-25T10:16:00.577Z,14.17
2022-11-25T10:18:35.554Z,16.27
2022-11-25T10:21:04.785Z,12.30
2022-11-25T10:23:36.036Z,16.27
2022-11-25T10:26:14.488Z,15.83
2022-11-25T10:28:46.836Z,14.70
2022-11-25T10:31:19.828Z,17.63
2022-11-25T10:33:49.598Z,15.53
2022-11-25T10:36:19.629Z,15.03
2022-11-25T10:38:56.253Z,16.37
2022-11-25T10:41:29.435Z,14.70
2022-11-25T10:43:57.976Z,12.13
2022-11-25T10:47:10.979Z,17.37
2022-11-25T10:49:31.860Z,11.83
2022-11-25T10:52:00.050Z,13.33
2022-11-25T10:54:29.505Z,15.07
2022-11-25T10:57:00.364Z,14.17
2022-11-25T10:59:31.001Z,16.30
2022-11-25T11:02:19.144Z,16.37
2022-11-25T11:04:57.572Z,11.97
2022-11-25T11:07:26.945Z,14.60
2022-11-25T11:09:55.215Z,14.63
2022-11-25T11:12:26.540Z,12.20
2022-11-25T11:15:14.944Z,16.80
2022-11-25T11:17:43.101Z,12.03
2022-11-25T11:20:23.192Z,16.33
2022-11-25T11:22:57.179Z,15.17
2022-11-25T11:25:34.806Z,16.63
2022-11-25T11:28:24.621Z,14.50
2022-11-25T11:30:58.948Z,16.77
2022-11-25T11:33:34.184Z,12.53
2022-11-25T11:36:11.733Z,12.10
2022-11-25T11:38:49.468Z,15.73
2022-11-25T11:41:34.659Z,17.10
2022-11-25T11:44:17.748Z,13.40
2022-11-25T11:47:05.929Z,11.40
2022-11-25T11:49:49.006Z,12.07
2022-11-25T11:52:25.487Z,15.93
2022-11-25T11:54:55.718Z,16.90
2022-11-25T11:57:35.493Z,14.70
2022-11-25T12:00:10.190Z,12.33
2022-11-25T12:02:58.595Z,16.50
2022-11-25T12:05:30.509Z,13.17
2022-11-25T12:08:06.670Z,13.40
2022-11-25T12:10:39.366Z,14.17
2022-11-25T12:13:17.653Z,17.53
2022-11-25T12:15:52.381Z,17.50
2022-11-25T12:18:32.207Z,14.23
2022-11-25T12:21:03.772Z,13.90
2022-11-25T12:23:42.816Z,10.67
2022-11-25T12:26:16.020Z,10.73
2022-11-25T12:28:50.044Z,16.10
2022-11-25T12:31:24.201Z,14.27
2022-11-25T12:34:03.229Z,18.53
2022-11-25T12:36:36.464Z,14.50
2022-11-25T12:39:07.001Z,13.57
2022-11-25T12:41:43.228Z,14.53
2022-11-25T12:44:18.512Z,16.57
2022-11-25T12:46:50.610Z,11.77
2022-11-25T12:49:21.852Z,16.30
2022-11-25T12:52:18.821Z,15.17
2022-11-25T12:55:06.633Z,15.00
2022-11-25T12:58:02.153Z,14.77
2022-11-25T13:00:42.717Z,13.20
2022-11-25T13:03:36.013Z,14.63
2022-11-25T13:06:44.111Z,13.33
2022-11-25T13:09:29.565Z,15.80
2022-11-25T13:12:08.065Z,13.60
2022-11-25T13:18:50.586Z,12.87
2022-11-25T13:21:19.981Z,11.93
2022-11-25T13:23:50.649Z,15.83
2022-11-25T13:26:47.984Z,10.47
2022-11-25T13:30:05.069Z,16.47
2022-11-25T13:32:38.937Z,17.17
2022-11-25T13:35:37.768Z,15.23
2022-11-25T13:38:38.315Z,15.20
2022-11-25T13:41:24.465Z,17.73
2022-11-25T13:44:01.838Z,20.63
2022-11-25T13:46:40.539Z,15.17
2022-11-25T13:49:23.574Z,15.60
2022-11-25T13:51:54.635Z,21.00
2022-11-25T13:54:27.741Z,17.83
2022-11-25T13:57:15.592Z,19.70
2022-11-25T13:59:52.609Z,21.13
2022-11-25T14:02:36.417Z,21.30
2022-11-25T14:05:15.618Z,19.17
2022-11-25T14:07:53.592Z,24.03
2022-11-25T14:10:39.291Z,20.30
2022-11-25T14:13:31.967Z,19.07
2022-11-25T14:16:13.200Z,19.97
2022-11-25T14:22:03.275Z,22.57
2022-11-25T14:24:38.467Z,21.03
2022-11-25T14:27:13.109Z,18.37
2022-11-25T14:29:46.295Z,23.57
2022-11-25T14:32:19.511Z,22.53
2022-11-25T14:34:50.132Z,23.60
2022-11-25T14:37:22.635Z,20.83
2022-11-25T14:39:57.569Z,22.30
2022-11-25T14:42:28.411Z,20.57
2022-11-25T14:44:58.410Z,18.73
2022-11-25T14:47:28.871Z,18.87
2022-11-25T14:50:33.641Z,21.60
2022-11-25T14:52:48.633Z,24.70
2022-11-25T14:55:28.899Z,18.93
2022-11-25T14:57:57.303Z,20.90
2022-11-25T15:00:25.876Z,23.27
2022-11-25T15:02:56.310Z,21.43
2022-11-25T15:05:27.044Z,21.77
2022-11-25T15:07:59.907Z,27.40
2022-11-25T15:10:42.468Z,23.13
2022-11-25T15:13:25.156Z,22.53
2022-11-25T15:15:55.601Z,23.53
2022-11-25T15:18:25.994Z,24.03
2022-11-25T15:20:59.473Z,30.60
2022-11-25T15:23:31.935Z,36.37
2022-11-25T15:26:02.552Z,31.93
2022-11-25T15:28:36.223Z,27.37
2022-11-25T15:31:10.996Z,24.87
2022-11-25T15:33:40.281Z,31.30
2022-11-25T15:36:08.843Z,29.53
2022-11-25T15:38:41.057Z,25.43
2022-11-25T15:41:21.922Z,24.43
2022-11-25T15:43:52.689Z,24.57
2022-11-25T15:46:21.214Z,24.73
2022-11-25T15:48:51.959Z,22.70
2022-11-25T15:51:28.632Z,24.80
2022-11-25T15:54:00.870Z,29.97
2022-11-25T15:56:33.241Z,29.87
2022-11-25T15:59:02.055Z,28.20
2022-11-25T16:01:31.138Z,31.57
2022-11-25T16:04:13.371Z,27.97
2022-11-25T16:06:54.674Z,26.80
2022-11-25T16:09:25.564Z,30.60
2022-11-25T16:11:54.977Z,28.60
2022-11-25T16:14:27.585Z,29.13
2022-11-25T16:17:02.323Z,30.50
2022-11-25T16:19:38.006Z,30.97
2022-11-25T16:22:07.248Z,30.27
2022-11-25T16:24:41.822Z,43.23
2022-11-25T16:27:19.946Z,44.37
2022-11-25T16:29:56.996Z,42.33
2022-11-25T16:32:27.184Z,33.97
2022-11-25T16:34:57.631Z,35.77
2022-11-25T16:37:25.875Z,36.00
2022-11-25T16:39:53.936Z,37.43
2022-11-25T16:42:23.660Z,42.83
2022-11-25T16:44:53.312Z,39.20
2022-11-25T16:47:22.630Z,31.97
2022-11-25T16:49:50.635Z,34.13
2022-11-25T16:52:18.750Z,33.97
2022-11-25T16:54:47.418Z,33.50
2022-11-25T16:57:19.204Z,33.40
2022-11-25T16:59:54.574Z,36.80
2022-11-25T17:02:24.359Z,35.27
2022-11-25T17:04:52.574Z,34.23
2022-11-25T17:07:37.985Z,38.57
2022-11-25T17:10:07.434Z,32.60
2022-11-25T17:12:36.872Z,35.83
2022-11-25T17:15:12.572Z,37.37
2022-11-25T17:17:41.082Z,29.20
2022-11-25T17:20:15.536Z,41.77
2022-11-25T17:22:43.557Z,35.97
2022-11-25T17:25:13.347Z,31.80
2022-11-25T17:27:42.248Z,32.57
2022-11-25T17:30:18.593Z,33.80
2022-11-25T17:32:46.929Z,36.37
2022-11-25T17:35:19.740Z,35.40
2022-11-25T17:37:47.869Z,36.73
2022-11-25T17:40:16.391Z,35.53
2022-11-25T17:42:45.802Z,33.50
2022-11-25T17:45:17.014Z,34.40
2022-11-25T17:47:45.256Z,34.97
2022-11-25T17:50:21.273Z,33.73
2022-11-25T17:52:50.107Z,36.40
2022-11-25T17:55:19.683Z,36.77
2022-11-25T17:57:48.197Z,31.23
2022-11-25T18:00:20.345Z,31.43
2022-11-25T18:02:48.564Z,31.73
2022-11-25T18:05:20.257Z,26.57
2022-11-25T18:07:48.465Z,33.17
2022-11-25T18:10:18.639Z,34.93
2022-11-25T18:12:48.201Z,30.00
2022-11-25T18:15:19.078Z,28.33
2022-11-25T18:17:47.592Z,25.77
2022-11-25T18:20:18.238Z,27.50
2022-11-25T18:22:46.923Z,25.80
2022-11-25T18:25:16.273Z,26.33
2022-11-25T18:27:45.096Z,27.50
2022-11-25T18:30:20.506Z,25.73
2022-11-25T18:32:49.232Z,24.70
2022-11-25T18:35:19.336Z,25.47
2022-11-25T18:37:47.887Z,27.17
2022-11-25T18:40:16.455Z,24.17
2022-11-25T18:42:47.000Z,20.40
2022-11-25T18:45:20.308Z,25.63
2022-11-25T18:47:48.761Z,22.50
2022-11-25T18:50:18.681Z,21.97
2022-11-25T18:52:47.415Z,25.90
2022-11-25T18:55:17.055Z,20.97
2022-11-25T18:57:47.990Z,24.23
2022-11-25T19:00:35.736Z,22.20
2022-11-25T19:03:03.916Z,27.83
2022-11-25T19:05:34.421Z,25.03
2022-11-25T19:08:02.807Z,18.03
2022-11-25T19:10:33.401Z,23.53
2022-11-25T19:13:06.827Z,20.73
2022-11-25T19:15:37.481Z,19.20
2022-11-25T19:18:07.618Z,18.20
2022-11-25T19:20:35.647Z,24.70
2022-11-25T19:23:16.906Z,25.43
2022-11-25T19:25:45.647Z,22.33
2022-11-25T19:28:16.227Z,22.33
2022-11-25T19:30:47.569Z,24.00
2022-11-25T19:33:28.624Z,20.63
2022-11-25T19:35:56.627Z,23.17
2022-11-25T19:38:26.211Z,23.23
2022-11-25T19:40:54.448Z,21.30
2022-11-25T19:43:23.103Z,18.90
2022-11-25T19:45:52.601Z,21.40
2022-11-25T19:48:22.121Z,21.13
2022-11-25T19:50:51.972Z,19.97
2022-11-25T19:53:22.196Z,22.67
2022-11-25T19:55:50.549Z,23.07
2022-11-25T19:58:18.693Z,22.40
2022-11-25T20:00:49.090Z,19.17
2022-11-25T20:03:23.223Z,15.80
2022-11-25T20:05:52.673Z,17.90
2022-11-25T20:08:22.333Z,20.43
2022-11-25T20:10:50.755Z,19.77
2022-11-25T20:13:18.851Z,18.57
2022-11-25T20:15:47.364Z,16.67
2022-11-25T20:18:18.858Z,21.87
2022-11-25T20:20:48.778Z,17.50
2022-11-25T20:23:23.171Z,18.03
2022-11-25T20:25:51.501Z,16.27
2022-11-25T20:28:21.372Z,22.70
2022-11-25T20:30:50.452Z,21.93
2022-11-25T20:33:24.387Z,19.83
2022-11-25T20:35:55.858Z,16.67
2022-11-25T20:38:27.865Z,19.63
2022-11-25T20:40:59.347Z,20.23
2022-11-25T20:43:32.802Z,17.73
2022-11-25T20:46:02.467Z,16.93
2022-11-25T20:48:32.308Z,22.57
2022-11-25T20:51:01.933Z,20.17
2022-11-25T20:53:32.219Z,18.13
2022-11-25T20:56:00.719Z,18.07
2022-11-25T20:58:30.387Z,20.73
2022-11-25T21:00:59.259Z,17.47
2022-11-25T21:03:27.781Z,16.73
2022-11-25T21:05:58.061Z,12.70
2022-11-25T21:08:30.053Z,16.93
2022-11-25T21:10:59.646Z,18.37
2022-11-25T21:13:29.495Z,18.47
2022-11-25T21:15:57.904Z,18.07
2022-11-25T21:18:26.395Z,21.63
2022-11-25T21:20:57.897Z,19.37
2022-11-25T21:23:29.236Z,17.80
2022-11-25T21:26:02.613Z,20.40
2022-11-25T21:28:30.776Z,19.17
2022-11-25T21:30:58.754Z,16.60
2022-11-25T21:33:26.747Z,17.63
2022-11-25T21:35:55.036Z,19.57
2022-11-25T21:38:26.881Z,21.23
2022-11-25T21:40:56.933Z,21.43
2022-11-25T21:43:28.405Z,16.90
2022-11-25T21:46:01.524Z,17.53
2022-11-25T21:48:31.021Z,19.83
2022-11-25T21:50:59.448Z,22.27
2022-11-25T21:53:32.023Z,17.53
2022-11-25T21:56:04.110Z,13.47
2022-11-25T21:58:32.538Z,16.20
2022-11-25T22:01:02.503Z,19.23
2022-11-25T22:03:32.432Z,18.67
2022-11-25T22:06:00.425Z,14.13
2022-11-25T22:08:29.867Z,18.10
2022-11-25T22:10:58.771Z,17.30
2022-11-25T22:13:33.690Z,16.13
2022-11-25T22:16:01.884Z,15.27
2022-11-25T22:18:32.908Z,18.60
2022-11-25T22:21:00.940Z,16.67
2022-11-25T22:23:30.316Z,16.00
2022-11-25T22:25:58.760Z,21.13
2022-11-25T22:28:29.003Z,19.07
2022-11-25T22:30:59.253Z,17.97
2022-11-25T22:33:30.955Z,17.20
2022-11-25T22:35:59.548Z,16.30
2022-11-25T22:38:29.068Z,18.83
2022-11-25T22:41:01.386Z,19.00
2022-11-25T22:43:32.728Z,18.17
2022-11-25T22:46:01.043Z,16.77
2022-11-25T22:48:32.367Z,19.83
2022-11-25T22:51:00.606Z,20.50
2022-11-25T22:53:29.128Z,16.37
2022-11-25T22:55:58.782Z,13.27
2022-11-25T22:58:27.880Z,19.13
2022-11-25T23:00:57.531Z,20.50
2022-11-25T23:03:29.188Z,17.40
2022-11-25T23:05:58.149Z,17.40
2022-11-25T23:08:28.505Z,19.50
2022-11-25T23:10:59.516Z,14.27
2022-11-25T23:13:27.594Z,18.93
2022-11-25T23:15:57.223Z,19.10
2022-11-25T23:18:30.142Z,19.10
2022-11-25T23:20:59.934Z,18.67
2022-11-25T23:23:29.486Z,14.43
2022-11-25T23:25:59.820Z,16.70
2022-11-25T23:28:27.889Z,17.17
2022-11-25T23:30:57.842Z,19.07
2022-11-25T23:33:31.164Z,20.17
2022-11-25T23:36:02.513Z,19.03
2022-11-25T23:38:33.020Z,23.93
2022-11-25T23:41:02.340Z,15.83
2022-11-25T23:43:30.583Z,17.63
2022-11-25T23:45:58.841Z,18.17
2022-11-25T23:48:30.354Z,20.90
2022-11-25T23:51:00.043Z,20.57
2022-11-25T23:53:31.933Z,17.67
2022-11-25T23:56:00.262Z,19.00
2022-11-25T23:58:29.654Z,21.30
